Time;durP1;ratioP1;P1;durP2;ratioP2;P2;SDS_P1;SDS_P2;PMS_P1;PMS_P2;Temp;Humidity;BMP_temperature;BMP_pressure;BME280_temperature;BME280_humidity;BME280_pressure;Samples;Min_cycle;Max_cycle;Signal;HPM_P1;HPM_P2
2021/01/15 00:00:14;;;;;;;23.07;17.50;;;-0.40;99.90;;;;;;5037820;28;20264;-79
2021/01/15 00:02:40;;;;;;;21.80;17.20;;;-0.30;99.90;;;;;;5037854;28;20292;-79
2021/01/15 00:05:06;;;;;;;24.73;17.63;;;-0.30;99.90;;;;;;5037867;28;20198;-79
2021/01/15 00:07:32;;;;;;;22.50;17.03;;;-0.40;99.90;;;;;;5037836;28;20224;-78
2021/01/15 00:09:58;;;;;;;21.67;16.97;;;-0.40;99.90;;;;;;5020250;28;20175;-79
2021/01/15 00:12:23;;;;;;;22.77;17.97;;;-0.40;99.90;;;;;;5020016;28;20182;-78
2021/01/15 00:14:49;;;;;;;22.70;17.73;;;-0.40;99.90;;;;;;5037691;28;20254;-79
2021/01/15 00:17:15;;;;;;;22.57;16.93;;;-0.40;99.90;;;;;;5019824;28;20201;-79
2021/01/15 00:19:40;;;;;;;22.97;16.87;;;-0.40;99.90;;;;;;5037694;28;20242;-79
2021/01/15 00:22:06;;;;;;;22.90;17.70;;;-0.40;99.90;;;;;;5031699;28;20178;-78
2021/01/15 00:24:32;;;;;;;25.97;18.53;;;-0.40;99.90;;;;;;5034766;28;20198;-79
2021/01/15 00:26:58;;;;;;;21.93;16.70;;;-0.40;99.90;;;;;;5019913;28;20186;-78
2021/01/15 00:29:24;;;;;;;20.93;15.77;;;-0.40;99.90;;;;;;5037613;28;20693;-79
2021/01/15 00:31:49;;;;;;;19.30;15.93;;;-0.40;99.90;;;;;;5019453;28;20177;-78
2021/01/15 00:34:17;;;;;;;19.53;16.10;;;-0.40;99.90;;;;;;5037372;28;20627;-78
2021/01/15 00:36:45;;;;;;;18.63;15.20;;;-0.40;99.90;;;;;;5036860;28;20526;-78
2021/01/15 00:39:14;;;;;;;17.23;14.27;;;-0.50;99.90;;;;;;5019678;28;20171;-78
2021/01/15 00:41:45;;;;;;;15.30;13.13;;;-0.40;99.90;;;;;;5037522;28;20170;-79
2021/01/15 00:44:11;;;;;;;16.37;13.80;;;-0.40;99.90;;;;;;5019872;28;20256;-79
2021/01/15 00:46:45;;;;;;;18.77;13.80;;;-0.40;99.90;;;;;;5036599;28;20726;-78
2021/01/15 00:49:13;;;;;;;18.13;13.00;;;-0.40;99.90;;;;;;5018362;28;20182;-79
2021/01/15 00:51:45;;;;;;;16.60;13.20;;;-0.40;99.90;;;;;;5036701;28;20174;-79
2021/01/15 00:54:11;;;;;;;17.00;13.13;;;-0.40;99.90;;;;;;5036949;28;20209;-79
2021/01/15 00:56:37;;;;;;;13.07;11.73;;;-0.40;99.90;;;;;;5034848;28;20189;-79
2021/01/15 00:59:04;;;;;;;14.20;11.90;;;-0.40;99.90;;;;;;5036983;28;20265;-79
2021/01/15 01:01:30;;;;;;;13.80;12.37;;;-0.40;99.90;;;;;;5036750;28;20169;-79
2021/01/15 01:03:56;;;;;;;14.20;12.53;;;-0.40;99.90;;;;;;5036970;28;20202;-80
2021/01/15 01:06:23;;;;;;;14.40;12.40;;;-0.40;99.90;;;;;;5036535;28;20372;-79
2021/01/15 01:08:50;;;;;;;15.10;12.27;;;-0.40;99.90;;;;;;5036707;28;20182;-79
2021/01/15 01:11:24;;;;;;;15.70;12.80;;;-0.40;99.90;;;;;;5036788;28;20193;-79
2021/01/15 01:13:52;;;;;;;16.03;12.57;;;-0.40;99.90;;;;;;5036289;28;20241;-78
2021/01/15 01:16:19;;;;;;;14.63;12.97;;;-0.40;99.90;;;;;;5036507;28;20176;-79
2021/01/15 01:18:46;;;;;;;16.87;13.60;;;-0.50;99.90;;;;;;5035883;28;20181;-79
2021/01/15 01:21:13;;;;;;;19.93;14.80;;;-0.50;99.90;;;;;;5035273;28;20173;-78
2021/01/15 01:23:40;;;;;;;16.93;13.80;;;-0.50;99.90;;;;;;5034191;28;20198;-79
2021/01/15 01:26:06;;;;;;;15.93;13.83;;;-0.50;99.90;;;;;;5036616;28;20204;-79
2021/01/15 01:28:32;;;;;;;14.70;12.57;;;-0.50;99.90;;;;;;5036327;28;20732;-79
2021/01/15 01:30:58;;;;;;;16.47;13.57;;;-0.50;99.90;;;;;;5036473;28;20182;-79
2021/01/15 01:33:24;;;;;;;18.20;14.27;;;-0.50;99.90;;;;;;5035991;28;20223;-78
2021/01/15 01:35:50;;;;;;;18.37;14.80;;;-0.50;99.90;;;;;;5037177;28;20178;-79
2021/01/15 01:38:18;;;;;;;19.17;14.87;;;-0.50;99.90;;;;;;5036054;28;20181;-79
2021/01/15 01:40:44;;;;;;;17.53;14.60;;;-0.50;99.90;;;;;;5036522;28;20175;-79
2021/01/15 01:43:11;;;;;;;17.07;14.17;;;-0.50;99.90;;;;;;5036645;28;20217;-77
2021/01/15 01:45:36;;;;;;;19.83;14.77;;;-0.50;99.90;;;;;;5018277;28;20163;-79
2021/01/15 01:48:03;;;;;;;16.87;14.13;;;-0.50;99.90;;;;;;5036504;28;20245;-79
2021/01/15 01:50:30;;;;;;;18.77;14.87;;;-0.50;99.90;;;;;;5018438;28;20588;-78
2021/01/15 01:52:56;;;;;;;16.97;14.27;;;-0.50;99.90;;;;;;5018387;28;20162;-79
2021/01/15 01:55:23;;;;;;;17.23;14.17;;;-0.50;99.90;;;;;;5036241;28;20202;-79
2021/01/15 01:57:49;;;;;;;20.97;15.70;;;-0.40;99.90;;;;;;5018522;28;20538;-79
2021/01/15 02:00:16;;;;;;;20.07;15.40;;;-0.40;99.90;;;;;;5036094;28;20732;-79
2021/01/15 02:02:42;;;;;;;19.80;15.77;;;-0.50;99.90;;;;;;5018438;28;20175;-78
2021/01/15 02:05:09;;;;;;;20.90;15.07;;;-0.50;99.90;;;;;;5036130;28;20198;-79
2021/01/15 02:07:35;;;;;;;19.43;15.03;;;-0.50;99.90;;;;;;5036106;28;20245;-79
2021/01/15 02:10:17;;;;;;;17.67;15.30;;;-0.50;99.90;;;;;;5036433;28;20201;-78
2021/01/15 02:12:49;;;;;;;18.53;14.80;;;-0.50;99.90;;;;;;5018914;28;20170;-79
2021/01/15 02:15:18;;;;;;;19.87;15.43;;;-0.50;99.90;;;;;;5035780;28;20210;-78
2021/01/15 02:18:28;;;;;;;19.47;15.13;;;-0.50;99.90;;;;;;5036079;28;20601;-79
2021/01/15 02:21:31;;;;;;;16.10;13.80;;;-0.50;99.90;;;;;;5022621;28;20179;-79
2021/01/15 02:24:17;;;;;;;19.27;14.43;;;-0.50;99.90;;;;;;5028394;28;20202;-77
2021/01/15 02:27:02;;;;;;;17.50;14.93;;;-0.50;99.90;;;;;;5032814;28;20214;-78
2021/01/15 02:29:30;;;;;;;19.60;15.27;;;-0.60;99.90;;;;;;5037327;28;20178;-78
2021/01/15 02:32:18;;;;;;;19.43;14.80;;;-0.50;99.90;;;;;;5040196;28;20537;-78
2021/01/15 02:35:18;;;;;;;18.40;14.07;;;-0.50;99.90;;;;;;5022143;28;20217;-78
2021/01/15 02:37:49;;;;;;;19.63;14.80;;;-0.50;99.90;;;;;;5018181;28;20255;-78
2021/01/15 02:40:41;;;;;;;17.17;13.93;;;-0.50;99.90;;;;;;5040424;28;20174;-79
2021/01/15 02:43:08;;;;;;;19.93;14.97;;;-0.50;99.90;;;;;;5021174;28;20193;-78
2021/01/15 02:45:34;;;;;;;20.53;15.47;;;-0.50;99.90;;;;;;5040241;28;20170;-79
2021/01/15 02:48:06;;;;;;;19.53;14.47;;;-0.50;99.90;;;;;;5040033;28;20254;-79
2021/01/15 02:50:32;;;;;;;24.57;14.77;;;-0.60;99.90;;;;;;5039806;28;20668;-78
2021/01/15 02:52:59;;;;;;;19.33;15.30;;;-0.60;99.90;;;;;;5022151;28;20177;-78
2021/01/15 02:55:25;;;;;;;20.90;15.00;;;-0.60;99.90;;;;;;5039309;28;20187;-79
2021/01/15 02:57:52;;;;;;;21.83;15.77;;;-0.70;99.90;;;;;;5041359;28;20248;-79
2021/01/15 03:00:20;;;;;;;23.53;16.87;;;-0.70;99.90;;;;;;5040248;28;20261;-79
2021/01/15 03:03:07;;;;;;;21.83;16.40;;;-0.70;99.90;;;;;;5040055;28;20167;-78
2021/01/15 03:05:52;;;;;;;23.83;16.43;;;-0.70;99.90;;;;;;5038722;28;20186;-78
2021/01/15 03:08:21;;;;;;;23.57;15.93;;;-0.60;99.90;;;;;;5029622;28;20553;-79
2021/01/15 03:10:51;;;;;;;23.17;16.87;;;-0.70;99.90;;;;;;5022019;28;20273;-78
2021/01/15 03:13:18;;;;;;;23.43;17.13;;;-0.60;99.90;;;;;;5039895;28;20283;-79
2021/01/15 03:15:47;;;;;;;23.70;17.60;;;-0.60;99.90;;;;;;5039155;28;20600;-78
2021/01/15 03:18:14;;;;;;;22.20;16.43;;;-0.70;99.90;;;;;;5021990;28;20544;-79
2021/01/15 03:20:40;;;;;;;21.70;16.83;;;-0.70;99.90;;;;;;5036816;28;20709;-79
2021/01/15 03:23:06;;;;;;;24.10;17.53;;;-0.60;99.90;;;;;;5031506;28;20254;-78
2021/01/15 03:25:32;;;;;;;23.97;16.83;;;-0.70;99.90;;;;;;5040016;28;20174;-78
2021/01/15 03:27:58;;;;;;;23.47;17.67;;;-0.60;99.90;;;;;;5036649;28;20175;-78
2021/01/15 03:30:28;;;;;;;20.90;16.50;;;-0.60;99.90;;;;;;5034351;28;20543;-78
2021/01/15 03:33:00;;;;;;;23.90;17.17;;;-0.70;99.90;;;;;;5038070;28;20186;-78
2021/01/15 03:35:27;;;;;;;23.23;17.00;;;-0.70;99.90;;;;;;5020380;28;20671;-78
2021/01/15 03:38:07;;;;;;;27.00;18.00;;;-0.70;99.90;;;;;;5039851;28;20305;-78
2021/01/15 03:40:41;;;;;;;23.67;17.37;;;-0.70;99.90;;;;;;5039312;28;20174;-78
2021/01/15 03:43:10;;;;;;;22.67;16.83;;;-0.70;99.90;;;;;;5039215;28;20194;-79
2021/01/15 03:45:35;;;;;;;23.73;17.47;;;-0.70;99.90;;;;;;5039078;28;20303;-78
2021/01/15 03:48:01;;;;;;;26.87;18.00;;;-0.70;99.90;;;;;;5039775;28;20192;-78
2021/01/15 03:50:27;;;;;;;27.73;18.00;;;-0.70;99.90;;;;;;5039569;28;20204;-78
2021/01/15 03:52:53;;;;;;;27.93;18.90;;;-0.70;99.90;;;;;;5039377;28;20178;-79
2021/01/15 03:55:19;;;;;;;27.27;18.00;;;-0.30;99.90;;;;;;5039668;28;20225;-78
2021/01/15 03:57:45;;;;;;;24.77;17.37;;;-0.70;99.90;;;;;;5039556;28;20537;-78
2021/01/15 04:00:11;;;;;;;25.13;18.20;;;-0.60;99.90;;;;;;5021688;28;20185;-78
2021/01/15 04:02:37;;;;;;;24.30;17.63;;;-0.60;99.90;;;;;;5038853;28;20170;-78
2021/01/15 04:05:08;;;;;;;25.03;18.20;;;-0.60;99.90;;;;;;5038937;28;20282;-78
2021/01/15 04:07:33;;;;;;;25.90;18.40;;;-0.60;99.90;;;;;;5039075;28;20191;-78
2021/01/15 04:09:59;;;;;;;23.57;16.87;;;-0.60;99.90;;;;;;5039179;28;20170;-78
2021/01/15 04:12:25;;;;;;;24.97;16.77;;;-0.60;99.90;;;;;;5038987;28;20188;-78
2021/01/15 04:14:51;;;;;;;27.80;19.03;;;-0.60;99.90;;;;;;5020855;28;20198;-78
2021/01/15 04:17:17;;;;;;;22.07;16.60;;;-0.60;99.90;;;;;;5038699;28;20236;-78
2021/01/15 04:19:42;;;;;;;26.67;18.30;;;-0.60;99.90;;;;;;5038577;28;20594;-78
2021/01/15 04:22:08;;;;;;;24.07;17.97;;;-0.70;99.90;;;;;;5015114;28;20559;-78
2021/01/15 04:24:34;;;;;;;23.70;17.23;;;-0.70;99.90;;;;;;5037008;28;20201;-78
2021/01/15 04:27:00;;;;;;;27.70;18.80;;;-0.70;99.90;;;;;;5038827;28;20174;-78
2021/01/15 04:29:26;;;;;;;26.30;18.23;;;-0.70;99.90;;;;;;5038867;28;20189;-78
2021/01/15 04:31:52;;;;;;;27.03;18.93;;;-0.70;99.90;;;;;;5039685;28;20167;-78
2021/01/15 04:34:18;;;;;;;26.00;18.77;;;-0.70;99.90;;;;;;5038240;28;20220;-78
2021/01/15 04:36:43;;;;;;;27.63;18.43;;;-0.60;99.90;;;;;;5037721;28;20193;-79
2021/01/15 04:39:10;;;;;;;27.33;19.43;;;-0.60;99.90;;;;;;5038434;28;20712;-78
2021/01/15 04:41:36;;;;;;;26.40;19.03;;;-0.70;99.90;;;;;;5020822;28;20170;-78
2021/01/15 04:44:03;;;;;;;27.43;19.23;;;-0.70;99.90;;;;;;5037649;28;20574;-78
2021/01/15 04:46:29;;;;;;;25.70;18.93;;;-0.70;99.90;;;;;;5036912;28;20180;-78
2021/01/15 04:48:56;;;;;;;29.27;18.93;;;-0.70;99.90;;;;;;5036705;28;20198;-78
2021/01/15 04:51:25;;;;;;;27.03;18.43;;;-0.70;99.90;;;;;;5037113;28;20177;-78
2021/01/15 04:53:56;;;;;;;28.90;19.90;;;-0.70;99.90;;;;;;5036300;28;20687;-78
2021/01/15 04:56:35;;;;;;;28.03;19.30;;;-0.80;99.90;;;;;;5037442;28;20169;-78
2021/01/15 04:59:05;;;;;;;28.80;18.50;;;-0.80;99.90;;;;;;5036864;28;20166;-78
2021/01/15 05:01:39;;;;;;;27.70;18.47;;;-0.80;99.90;;;;;;5029640;28;20293;-79
2021/01/15 05:04:09;;;;;;;29.23;19.40;;;-0.80;99.90;;;;;;5018018;28;20279;-78
2021/01/15 05:06:47;;;;;;;29.47;19.53;;;-0.80;99.90;;;;;;5018750;28;20189;-78
2021/01/15 05:09:21;;;;;;;28.30;18.70;;;-0.80;99.90;;;;;;5033615;28;20171;-78
2021/01/15 05:11:47;;;;;;;29.20;18.90;;;-0.80;99.90;;;;;;5035119;28;20174;-78
2021/01/15 05:14:15;;;;;;;28.67;18.50;;;-0.70;99.90;;;;;;5035876;28;20206;-78
2021/01/15 05:16:46;;;;;;;26.17;18.20;;;-0.80;99.90;;;;;;5036295;28;20639;-78
2021/01/15 05:19:13;;;;;;;28.47;18.23;;;-0.70;99.90;;;;;;5035152;28;20170;-78
2021/01/15 05:21:39;;;;;;;24.83;17.97;;;-0.80;99.90;;;;;;5033886;28;20174;-78
2021/01/15 05:24:06;;;;;;;24.27;18.17;;;-0.70;99.90;;;;;;5029371;28;20201;-78
2021/01/15 05:26:39;;;;;;;24.33;17.13;;;-0.80;99.90;;;;;;5035483;28;20177;-78
2021/01/15 05:29:07;;;;;;;26.53;18.30;;;-0.90;99.90;;;;;;5035308;28;20200;-78
2021/01/15 05:31:56;;;;;;;25.87;17.70;;;-0.90;99.90;;;;;;5035255;28;20165;-78
2021/01/15 05:34:24;;;;;;;25.33;17.30;;;-0.90;99.90;;;;;;5055835;23;20230;-76
2021/01/15 05:36:51;;;;;;;27.67;18.20;;;-0.80;99.90;;;;;;5053505;28;20174;-74
2021/01/15 05:39:18;;;;;;;24.70;18.30;;;-0.90;99.90;;;;;;5052158;28;20180;-76
2021/01/15 05:41:46;;;;;;;22.13;16.53;;;-0.90;99.90;;;;;;5052152;28;20211;-75
2021/01/15 05:44:33;;;;;;;25.73;17.57;;;-1.00;99.90;;;;;;5060687;28;20191;-77
2021/01/15 05:47:00;;;;;;;27.00;18.40;;;-1.00;99.90;;;;;;5073675;28;20184;-74
2021/01/15 05:49:27;;;;;;;29.23;18.97;;;-1.00;99.90;;;;;;5073574;28;20207;-71
2021/01/15 05:51:53;;;;;;;26.97;18.50;;;-1.00;99.90;;;;;;5073522;28;20177;-75
2021/01/15 05:54:31;;;;;;;27.27;17.83;;;-1.00;99.90;;;;;;5069251;28;20280;-73
2021/01/15 05:56:58;;;;;;;25.57;18.13;;;-1.00;99.90;;;;;;5051339;28;20167;-74
2021/01/15 05:59:23;;;;;;;26.30;17.57;;;-1.00;99.90;;;;;;5052789;28;20223;-77
2021/01/15 06:01:52;;;;;;;25.77;17.70;;;-1.10;99.90;;;;;;5052607;28;20173;-76
2021/01/15 06:04:32;;;;;;;23.63;16.77;;;-1.00;99.90;;;;;;5052675;28;20197;-72
2021/01/15 06:07:07;;;;;;;23.90;17.47;;;-1.00;99.90;;;;;;5053451;28;20220;-74
2021/01/15 06:09:34;;;;;;;24.87;17.00;;;-1.00;99.90;;;;;;5053157;28;20171;-76
2021/01/15 06:12:08;;;;;;;25.73;17.47;;;-1.00;99.90;;;;;;5052632;28;20532;-75
2021/01/15 06:14:34;;;;;;;24.70;18.37;;;-1.00;99.90;;;;;;5052873;28;20683;-76
2021/01/15 06:17:08;;;;;;;27.50;18.00;;;-1.00;99.90;;;;;;5053347;28;20173;-76
2021/01/15 06:19:44;;;;;;;24.97;16.57;;;-1.10;99.90;;;;;;5053096;28;20173;-76
2021/01/15 06:22:49;;;;;;;25.10;17.77;;;-1.10;99.90;;;;;;5052540;28;20168;-74
2021/01/15 06:25:31;;;;;;;24.23;16.77;;;-1.10;99.90;;;;;;5047705;28;20259;-76
2021/01/15 06:28:02;;;;;;;23.97;17.50;;;-1.10;99.90;;;;;;5055953;28;20185;-74
2021/01/15 06:30:30;;;;;;;25.43;17.00;;;-1.10;99.90;;;;;;5058311;28;20181;-76
2021/01/15 06:33:07;;;;;;;22.37;17.00;;;-1.10;99.90;;;;;;5053067;28;20209;-75
2021/01/15 06:35:36;;;;;;;22.73;17.17;;;-1.10;99.90;;;;;;5039116;28;20208;-74
2021/01/15 06:38:04;;;;;;;25.70;16.63;;;-1.10;99.90;;;;;;5034174;28;20207;-75
2021/01/15 06:40:31;;;;;;;26.10;17.60;;;-1.10;99.90;;;;;;5040752;28;20177;-74
2021/01/15 06:42:59;;;;;;;28.50;19.03;;;-1.10;99.90;;;;;;5037432;28;20170;-74
2021/01/15 06:45:25;;;;;;;23.97;17.03;;;-1.00;99.90;;;;;;5048925;28;20197;-76
2021/01/15 06:47:53;;;;;;;25.43;16.57;;;-1.00;99.90;;;;;;5053082;28;20201;-74
2021/01/15 06:50:20;;;;;;;24.33;17.40;;;-1.10;99.90;;;;;;5053135;28;20195;-74
2021/01/15 06:52:48;;;;;;;24.20;17.70;;;-1.10;99.90;;;;;;5053356;28;20173;-75
2021/01/15 06:55:19;;;;;;;25.73;17.73;;;-1.10;99.90;;;;;;5041445;22;20241;-74
2021/01/15 06:57:49;;;;;;;24.03;17.30;;;-1.10;99.90;;;;;;5032201;28;20264;-75
2021/01/15 07:00:22;;;;;;;22.13;16.57;;;-1.00;99.90;;;;;;5033238;28;20178;-76
2021/01/15 07:03:27;;;;;;;22.23;16.83;;;-1.10;99.90;;;;;;5041090;28;20164;-75
2021/01/15 07:05:54;;;;;;;22.17;17.13;;;-1.10;99.90;;;;;;5031368;28;20233;-74
2021/01/15 07:08:24;;;;;;;23.37;17.07;;;-1.00;99.90;;;;;;5035894;28;20209;-73
2021/01/15 07:10:50;;;;;;;25.70;17.53;;;-1.00;99.90;;;;;;5031727;28;20216;-74
2021/01/15 07:13:21;;;;;;;19.37;15.83;;;-1.00;99.90;;;;;;5026027;28;20212;-73
2021/01/15 07:15:53;;;;;;;23.00;15.97;;;-1.10;99.90;;;;;;5037281;28;20255;-75
2021/01/15 07:18:49;;;;;;;23.07;16.80;;;-1.20;99.90;;;;;;5038628;28;20195;-74
2021/01/15 07:21:21;;;;;;;21.80;16.77;;;-1.20;99.90;;;;;;5036813;28;20267;-75
2021/01/15 07:23:54;;;;;;;21.03;16.10;;;-1.10;99.90;;;;;;5040955;28;20182;-73
2021/01/15 07:26:21;;;;;;;25.03;17.27;;;-1.10;99.90;;;;;;5038901;28;20269;-74
2021/01/15 07:28:57;;;;;;;22.00;16.23;;;-1.10;99.90;;;;;;5040825;28;20178;-75
2021/01/15 07:31:27;;;;;;;20.40;16.00;;;-1.00;99.90;;;;;;5030196;28;20181;-74
2021/01/15 07:33:58;;;;;;;22.07;16.10;;;-1.00;99.90;;;;;;5036856;28;20861;-75
2021/01/15 07:36:53;;;;;;;19.97;15.13;;;-1.00;99.90;;;;;;5034976;28;20182;-74
2021/01/15 07:39:23;;;;;;;21.10;15.20;;;-1.10;99.90;;;;;;5030550;28;20276;-75
2021/01/15 07:41:53;;;;;;;27.63;16.87;;;-1.10;99.90;;;;;;5036196;28;20645;-75
2021/01/15 07:44:21;;;;;;;14.97;13.37;;;-1.10;99.90;;;;;;5018985;28;20198;-74
2021/01/15 07:46:52;;;;;;;19.43;13.97;;;-1.10;99.90;;;;;;5028509;28;20169;-75
2021/01/15 07:49:18;;;;;;;20.90;13.80;;;-1.10;99.90;;;;;;5045445;28;20203;-74
2021/01/15 07:52:07;;;;;;;17.00;14.50;;;-1.10;99.90;;;;;;5038774;28;20199;-75
2021/01/15 07:54:49;;;;;;;19.63;15.00;;;-1.10;99.90;;;;;;5032013;28;20213;-75
2021/01/15 07:57:16;;;;;;;17.80;13.33;;;-1.10;99.90;;;;;;5035155;28;20547;-74
2021/01/15 07:59:42;;;;;;;15.00;11.90;;;-1.10;99.90;;;;;;5020714;28;20234;-74
2021/01/15 08:02:15;;;;;;;18.67;14.07;;;-1.10;99.90;;;;;;5034876;28;20380;-74
2021/01/15 08:04:41;;;;;;;17.67;13.30;;;-1.00;99.90;;;;;;5026178;28;20197;-74
2021/01/15 08:07:27;;;;;;;14.57;12.97;;;-1.00;99.90;;;;;;5038860;28;20551;-75
2021/01/15 08:09:54;;;;;;;18.67;14.03;;;-1.00;99.90;;;;;;5033491;28;20613;-75
2021/01/15 08:12:23;;;;;;;18.33;13.43;;;-1.10;99.90;;;;;;5037888;28;20167;-75
2021/01/15 08:14:51;;;;;;;16.80;13.10;;;-1.10;99.90;;;;;;5039268;28;20208;-75
2021/01/15 08:17:30;;;;;;;15.70;13.57;;;-1.00;99.90;;;;;;5040905;28;20253;-77
2021/01/15 08:19:56;;;;;;;15.37;13.07;;;-1.00;99.90;;;;;;5036853;28;20171;-76
2021/01/15 08:22:23;;;;;;;15.93;13.30;;;-1.00;99.90;;;;;;5037221;28;20181;-75
2021/01/15 08:24:49;;;;;;;20.47;13.60;;;-1.00;99.90;;;;;;5035268;28;20678;-76
2021/01/15 08:27:17;;;;;;;17.87;13.77;;;-1.00;99.90;;;;;;5034884;28;20249;-76
2021/01/15 08:29:47;;;;;;;16.63;12.67;;;-1.00;99.90;;;;;;5032334;28;20272;-75
2021/01/15 08:32:16;;;;;;;16.53;13.17;;;-0.90;99.90;;;;;;5035422;28;20177;-75
2021/01/15 08:34:45;;;;;;;15.03;13.10;;;-0.90;99.90;;;;;;5036108;28;20240;-75
2021/01/15 08:37:28;;;;;;;17.40;11.20;;;-0.90;99.90;;;;;;5035983;28;20659;-76
2021/01/15 08:39:57;;;;;;;17.27;12.80;;;-0.80;99.90;;;;;;5033797;28;20175;-74
2021/01/15 08:42:33;;;;;;;12.87;11.50;;;-0.80;99.90;;;;;;5035669;28;20182;-74
2021/01/15 08:44:59;;;;;;;14.90;11.53;;;-0.90;99.90;;;;;;5030760;28;20699;-73
2021/01/15 08:47:27;;;;;;;14.47;12.00;;;-0.90;99.90;;;;;;5034954;28;20175;-74
2021/01/15 08:49:57;;;;;;;15.23;12.00;;;-0.90;99.90;;;;;;5036819;28;20238;-76
2021/01/15 08:52:32;;;;;;;13.73;11.90;;;-0.90;99.90;;;;;;5035428;28;20201;-75
2021/01/15 08:55:03;;;;;;;15.63;12.33;;;-0.90;99.90;;;;;;5039717;28;20381;-75
2021/01/15 08:57:32;;;;;;;16.63;12.43;;;-0.90;99.90;;;;;;5038921;28;20166;-75
2021/01/15 09:00:12;;;;;;;14.43;12.33;;;-0.90;99.90;;;;;;5035858;28;20244;-76
2021/01/15 09:02:41;;;;;;;14.10;12.30;;;-0.90;99.90;;;;;;5042049;28;20188;-75
2021/01/15 09:05:10;;;;;;;17.67;12.83;;;-0.90;99.90;;;;;;5040674;28;20232;-76
2021/01/15 09:07:47;;;;;;;15.00;12.90;;;-1.00;99.90;;;;;;5036417;28;20184;-76
2021/01/15 09:10:17;;;;;;;14.67;12.40;;;-0.90;99.90;;;;;;5033444;28;20189;-76
2021/01/15 09:12:48;;;;;;;16.67;12.80;;;-1.00;99.90;;;;;;5030965;28;20174;-75
2021/01/15 09:15:30;;;;;;;13.30;11.90;;;-1.00;99.90;;;;;;5039643;28;20206;-75
2021/01/15 09:17:58;;;;;;;14.00;12.60;;;-0.90;99.90;;;;;;5037362;28;20169;-74
2021/01/15 09:20:27;;;;;;;13.47;11.63;;;-0.90;99.90;;;;;;5036827;28;20189;-75
2021/01/15 09:22:53;;;;;;;13.73;12.00;;;-0.90;99.90;;;;;;5038488;28;20163;-75
2021/01/15 09:25:25;;;;;;;13.40;11.57;;;-0.90;99.90;;;;;;5032326;28;20199;-75
2021/01/15 09:27:51;;;;;;;15.83;13.13;;;-1.00;99.90;;;;;;5039599;28;20181;-74
2021/01/15 09:30:20;;;;;;;13.27;11.90;;;-1.00;99.90;;;;;;5036396;28;20218;-75
2021/01/15 09:32:46;;;;;;;12.70;11.40;;;-1.00;99.90;;;;;;5030067;28;20196;-73
2021/01/15 09:35:14;;;;;;;13.77;11.43;;;-1.10;99.90;;;;;;5036884;28;20218;-75
2021/01/15 09:37:40;;;;;;;15.70;12.70;;;-1.10;99.90;;;;;;5033009;28;20231;-74
2021/01/15 09:40:07;;;;;;;12.90;11.60;;;-1.10;99.90;;;;;;5035599;28;20573;-75
2021/01/15 09:42:35;;;;;;;14.63;11.77;;;-1.10;99.90;;;;;;5033598;28;20171;-76
2021/01/15 09:45:01;;;;;;;12.67;11.37;;;-1.10;99.90;;;;;;5033852;28;20209;-76
2021/01/15 09:47:29;;;;;;;17.20;12.13;;;-1.10;99.90;;;;;;5032783;28;20182;-75
2021/01/15 09:49:55;;;;;;;14.77;12.77;;;-1.00;99.90;;;;;;5044380;28;20301;-77
2021/01/15 09:52:24;;;;;;;15.47;12.03;;;-1.00;99.90;;;;;;5037856;28;20545;-75
2021/01/15 09:54:49;;;;;;;14.13;12.13;;;-1.00;99.90;;;;;;5035710;28;20217;-75
2021/01/15 09:57:15;;;;;;;15.23;12.67;;;-0.90;99.90;;;;;;5033757;28;20187;-75
2021/01/15 09:59:41;;;;;;;12.70;11.07;;;-0.90;99.90;;;;;;5045063;28;20353;-75
2021/01/15 10:02:10;;;;;;;13.40;11.00;;;-1.00;99.90;;;;;;5036619;28;20166;-74
2021/01/15 10:04:38;;;;;;;13.53;11.50;;;-1.00;99.90;;;;;;5040570;28;20261;-74
2021/01/15 10:07:04;;;;;;;13.30;11.73;;;-1.10;99.90;;;;;;5033464;28;20183;-75
2021/01/15 10:09:30;;;;;;;14.43;12.63;;;-1.20;99.90;;;;;;5032607;28;20235;-75
2021/01/15 10:11:56;;;;;;;16.77;12.77;;;-1.20;99.90;;;;;;5035789;28;20534;-74
2021/01/15 10:14:22;;;;;;;14.40;11.13;;;-1.40;99.90;;;;;;5042220;28;20205;-73
2021/01/15 10:16:49;;;;;;;14.03;12.27;;;-1.40;99.90;;;;;;5033507;28;20176;-75
2021/01/15 10:19:16;;;;;;;12.43;11.10;;;-1.40;99.90;;;;;;5033378;28;20177;-75
2021/01/15 10:21:43;;;;;;;14.10;12.10;;;-1.40;99.90;;;;;;5042498;28;20173;-75
2021/01/15 10:24:09;;;;;;;15.30;12.53;;;-1.30;99.90;;;;;;5042805;28;20579;-75
2021/01/15 10:26:37;;;;;;;14.43;12.20;;;-1.30;99.90;;;;;;5032465;28;20271;-72
2021/01/15 10:29:08;;;;;;;16.63;11.93;;;-1.30;99.90;;;;;;5035029;28;20184;-75
2021/01/15 10:31:40;;;;;;;16.17;12.13;;;-1.30;99.90;;;;;;5032035;28;20181;-76
2021/01/15 10:34:06;;;;;;;15.03;12.73;;;-1.40;99.90;;;;;;5043098;28;20333;-74
2021/01/15 10:36:37;;;;;;;18.83;13.30;;;-1.40;99.90;;;;;;5034844;28;20188;-76
2021/01/15 10:39:07;;;;;;;22.37;15.17;;;-1.30;99.90;;;;;;5034931;28;20535;-76
2021/01/15 10:41:38;;;;;;;15.07;12.33;;;-1.20;99.90;;;;;;5035373;28;20181;-76
2021/01/15 10:44:08;;;;;;;18.30;13.80;;;-1.20;99.90;;;;;;5035918;28;20276;-75
2021/01/15 10:46:38;;;;;;;16.60;13.43;;;-1.10;99.90;;;;;;5047406;28;20178;-74
2021/01/15 10:49:05;;;;;;;17.00;13.13;;;-1.00;99.90;;;;;;5038968;28;20254;-74
2021/01/15 10:51:37;;;;;;;16.63;12.60;;;-0.90;99.90;;;;;;5038334;28;20204;-75
2021/01/15 10:54:03;;;;;;;22.73;14.67;;;-0.80;99.90;;;;;;5039138;28;20233;-74
2021/01/15 10:56:39;;;;;;;19.77;14.40;;;-0.90;99.90;;;;;;5035298;28;20268;-75
2021/01/15 10:59:08;;;;;;;29.03;17.30;;;-1.00;99.90;;;;;;5033722;28;20180;-76
2021/01/15 11:01:42;;;;;;;21.50;15.33;;;-1.00;99.90;;;;;;5034134;28;20177;-75
2021/01/15 11:04:09;;;;;;;22.27;14.47;;;-1.00;99.90;;;;;;5035045;28;20198;-74
2021/01/15 11:06:39;;;;;;;26.30;17.50;;;-1.00;99.90;;;;;;5034902;28;20181;-74
2021/01/15 11:09:07;;;;;;;43.63;23.23;;;-1.00;99.90;;;;;;5047179;28;20178;-76
2021/01/15 11:11:35;;;;;;;19.57;13.63;;;-0.90;99.90;;;;;;5043990;28;20627;-75
2021/01/15 11:14:04;;;;;;;24.03;15.97;;;-1.00;99.90;;;;;;5040793;28;20226;-76
2021/01/15 11:16:47;;;;;;;26.77;15.00;;;-1.00;99.90;;;;;;5036102;28;20188;-75
2021/01/15 11:19:16;;;;;;;19.80;13.43;;;-1.00;99.90;;;;;;5030490;28;20176;-75
2021/01/15 11:21:42;;;;;;;18.03;14.30;;;-0.90;99.90;;;;;;5046061;28;20257;-73
2021/01/15 11:24:09;;;;;;;21.73;14.43;;;-0.90;99.90;;;;;;5031392;28;20281;-75
2021/01/15 11:26:38;;;;;;;19.60;14.67;;;-0.90;99.90;;;;;;5038021;28;20264;-75
2021/01/15 11:29:06;;;;;;;22.87;14.80;;;-0.80;99.90;;;;;;5033769;28;20205;-74
2021/01/15 11:31:33;;;;;;;19.33;13.90;;;-0.80;99.90;;;;;;5040318;28;20265;-73
2021/01/15 11:36:31;;;;;;;23.57;14.37;;;-0.80;99.90;;;;;;5047148;23;20226;-76
2021/01/15 11:39:02;;;;;;;19.37;13.43;;;-0.70;99.90;;;;;;5017087;28;20177;-76
2021/01/15 11:41:28;;;;;;;22.77;14.80;;;-0.70;99.90;;;;;;5023631;28;20200;-76
2021/01/15 11:43:53;;;;;;;90.73;34.27;;;-0.70;99.90;;;;;;5032432;28;20264;-76
2021/01/15 11:46:20;;;;;;;24.57;15.40;;;-0.70;99.90;;;;;;5017206;28;20210;-76
2021/01/15 11:48:47;;;;;;;30.90;16.67;;;-0.70;99.90;;;;;;5012373;28;20190;-75
2021/01/15 11:51:13;;;;;;;24.00;14.73;;;-0.80;99.90;;;;;;5013166;28;20183;-76
2021/01/15 11:53:39;;;;;;;23.97;15.40;;;-0.70;99.90;;;;;;5008080;28;20189;-77
2021/01/15 11:56:08;;;;;;;20.97;14.30;;;-0.80;99.90;;;;;;4997600;28;20567;-76
2021/01/15 11:58:36;;;;;;;23.97;15.53;;;-0.70;99.90;;;;;;5015147;28;20220;-77
2021/01/15 12:01:03;;;;;;;24.00;15.80;;;-0.60;99.90;;;;;;5012355;28;20182;-76
2021/01/15 12:03:29;;;;;;;26.73;16.80;;;-0.60;99.90;;;;;;4997404;28;20679;-77
2021/01/15 12:05:55;;;;;;;21.40;14.63;;;-0.60;99.90;;;;;;5002625;28;20226;-77
2021/01/15 12:08:27;;;;;;;25.57;15.43;;;-0.60;99.90;;;;;;4984675;28;20740;-76
2021/01/15 12:11:02;;;;;;;21.73;14.60;;;-0.70;99.90;;;;;;4996539;28;20183;-76
2021/01/15 12:13:28;;;;;;;21.53;14.47;;;-0.70;99.90;;;;;;4993367;28;20273;-77
2021/01/15 12:15:56;;;;;;;20.70;14.53;;;-0.90;99.90;;;;;;5005087;28;20222;-77
2021/01/15 12:18:23;;;;;;;22.00;14.40;;;-0.80;99.90;;;;;;5009281;28;20183;-75
2021/01/15 12:20:50;;;;;;;25.20;16.67;;;-0.80;99.90;;;;;;5004684;28;20179;-76
2021/01/15 12:23:17;;;;;;;24.27;14.47;;;-0.80;99.90;;;;;;5013294;28;20232;-76
2021/01/15 12:25:43;;;;;;;22.00;15.03;;;-0.70;99.90;;;;;;5008621;28;20261;-76
2021/01/15 12:28:11;;;;;;;20.63;14.83;;;-0.70;99.90;;;;;;5010473;28;20261;-77
2021/01/15 12:30:37;;;;;;;23.73;14.37;;;-0.60;99.90;;;;;;5006921;28;20187;-76
2021/01/15 12:33:10;;;;;;;22.90;14.73;;;-0.60;99.90;;;;;;5005070;28;20206;-76
2021/01/15 12:35:37;;;;;;;23.60;14.77;;;-0.60;99.90;;;;;;5000168;28;20218;-76
2021/01/15 12:38:07;;;;;;;20.77;13.70;;;-0.60;99.90;;;;;;5006122;28;20183;-76
2021/01/15 12:40:37;;;;;;;21.37;13.70;;;-0.50;99.90;;;;;;5012006;28;20179;-76
2021/01/15 12:43:04;;;;;;;22.93;14.53;;;-0.50;99.90;;;;;;5013933;28;20250;-76